sensor_id;sensor_type;location;lat;lon;timestamp;P1;durP1;ratioP1;P2;durP2;ratioP2
15982;SDS011;14442;50.196;8.096;2022-11-21T00:00:23;0.93;;;0.43;;
15982;SDS011;14442;50.196;8.096;2022-11-21T00:02:50;0.30;;;0.20;;
15982;SDS011;14442;50.196;8.096;2022-11-21T00:05:17;1.40;;;0.20;;
15982;SDS011;14442;50.196;8.096;2022-11-21T00:07:45;0.30;;;0.20;;
15982;SDS011;14442;50.196;8.096;2022-11-21T00:10:13;1.30;;;0.30;;
15982;SDS011;14442;50.196;8.096;2022-11-21T00:12:40;0.63;;;0.33;;
15982;SDS011;14442;50.196;8.096;2022-11-21T00:15:07;3.60;;;0.20;;
15982;SDS011;14442;50.196;8.096;2022-11-21T00:17:35;0.43;;;0.27;;
15982;SDS011;14442;50.196;8.096;2022-11-21T00:20:02;0.87;;;0.20;;
15982;SDS011;14442;50.196;8.096;2022-11-21T00:22:29;0.33;;;0.33;;
15982;SDS011;14442;50.196;8.096;2022-11-21T00:24:57;1.07;;;0.40;;
15982;SDS011;14442;50.196;8.096;2022-11-21T00:27:24;1.37;;;0.30;;
15982;SDS011;14442;50.196;8.096;2022-11-21T00:29:51;0.90;;;0.17;;
15982;SDS011;14442;50.196;8.096;2022-11-21T00:32:18;0.20;;;0.20;;
15982;SDS011;14442;50.196;8.096;2022-11-21T00:34:44;0.67;;;0.20;;
15982;SDS011;14442;50.196;8.096;2022-11-21T00:37:11;1.03;;;0.30;;
15982;SDS011;14442;50.196;8.096;2022-11-21T00:39:38;1.10;;;0.40;;
15982;SDS011;14442;50.196;8.096;2022-11-21T00:42:06;0.60;;;0.20;;
15982;SDS011;14442;50.196;8.096;2022-11-21T00:44:32;0.30;;;0.30;;
15982;SDS011;14442;50.196;8.096;2022-11-21T00:46:59;0.63;;;0.40;;
15982;SDS011;14442;50.196;8.096;2022-11-21T00:49:26;1.43;;;0.30;;
15982;SDS011;14442;50.196;8.096;2022-11-21T00:51:53;0.77;;;0.30;;
15982;SDS011;14442;50.196;8.096;2022-11-21T00:54:19;0.33;;;0.27;;
15982;SDS011;14442;50.196;8.096;2022-11-21T00:56:46;1.13;;;0.30;;
15982;SDS011;14442;50.196;8.096;2022-11-21T00:59:14;1.40;;;0.27;;
15982;SDS011;14442;50.196;8.096;2022-11-21T01:01:41;1.17;;;0.47;;
15982;SDS011;14442;50.196;8.096;2022-11-21T01:04:07;1.77;;;0.23;;
15982;SDS011;14442;50.196;8.096;2022-11-21T01:06:35;0.67;;;0.30;;
15982;SDS011;14442;50.196;8.096;2022-11-21T01:09:02;1.47;;;0.50;;
15982;SDS011;14442;50.196;8.096;2022-11-21T01:11:30;0.50;;;0.20;;
15982;SDS011;14442;50.196;8.096;2022-11-21T01:13:56;0.20;;;0.20;;
15982;SDS011;14442;50.196;8.096;2022-11-21T01:16:25;2.33;;;0.23;;
15982;SDS011;14442;50.196;8.096;2022-11-21T01:18:53;1.03;;;0.27;;
15982;SDS011;14442;50.196;8.096;2022-11-21T01:21:21;0.73;;;0.20;;
15982;SDS011;14442;50.196;8.096;2022-11-21T01:23:50;2.57;;;0.50;;
15982;SDS011;14442;50.196;8.096;2022-11-21T01:26:17;1.40;;;0.47;;
15982;SDS011;14442;50.196;8.096;2022-11-21T01:28:45;0.53;;;0.20;;
15982;SDS011;14442;50.196;8.096;2022-11-21T01:31:13;0.20;;;0.20;;
15982;SDS011;14442;50.196;8.096;2022-11-21T01:33:42;0.50;;;0.30;;
15982;SDS011;14442;50.196;8.096;2022-11-21T01:36:09;0.60;;;0.40;;
15982;SDS011;14442;50.196;8.096;2022-11-21T01:38:37;0.87;;;0.30;;
15982;SDS011;14442;50.196;8.096;2022-11-21T01:41:05;0.63;;;0.30;;
15982;SDS011;14442;50.196;8.096;2022-11-21T01:43:32;1.90;;;0.40;;
15982;SDS011;14442;50.196;8.096;2022-11-21T01:45:59;1.43;;;0.50;;
15982;SDS011;14442;50.196;8.096;2022-11-21T01:48:29;1.03;;;0.40;;
15982;SDS011;14442;50.196;8.096;2022-11-21T01:51:02;1.00;;;0.30;;
15982;SDS011;14442;50.196;8.096;2022-11-21T01:53:33;0.57;;;0.30;;
15982;SDS011;14442;50.196;8.096;2022-11-21T01:56:01;0.27;;;0.20;;
15982;SDS011;14442;50.196;8.096;2022-11-21T01:58:28;0.57;;;0.20;;
15982;SDS011;14442;50.196;8.096;2022-11-21T02:00:57;0.80;;;0.40;;
15982;SDS011;14442;50.196;8.096;2022-11-21T02:03:25;1.33;;;0.57;;
15982;SDS011;14442;50.196;8.096;2022-11-21T02:05:54;1.93;;;0.50;;
15982;SDS011;14442;50.196;8.096;2022-11-21T02:08:23;0.93;;;0.30;;
15982;SDS011;14442;50.196;8.096;2022-11-21T02:10:53;2.00;;;0.20;;
15982;SDS011;14442;50.196;8.096;2022-11-21T02:13:27;1.03;;;0.40;;
15982;SDS011;14442;50.196;8.096;2022-11-21T02:15:54;0.57;;;0.33;;
15982;SDS011;14442;50.196;8.096;2022-11-21T02:18:21;0.53;;;0.30;;
15982;SDS011;14442;50.196;8.096;2022-11-21T02:20:49;1.23;;;0.40;;
15982;SDS011;14442;50.196;8.096;2022-11-21T02:23:21;0.37;;;0.30;;
15982;SDS011;14442;50.196;8.096;2022-11-21T02:25:56;0.20;;;0.20;;
15982;SDS011;14442;50.196;8.096;2022-11-21T02:28:23;1.13;;;0.40;;
15982;SDS011;14442;50.196;8.096;2022-11-21T02:30:50;0.63;;;0.20;;
15982;SDS011;14442;50.196;8.096;2022-11-21T02:33:17;1.13;;;0.40;;
15982;SDS011;14442;50.196;8.096;2022-11-21T02:35:54;1.33;;;0.30;;
15982;SDS011;14442;50.196;8.096;2022-11-21T02:38:22;1.97;;;0.40;;
15982;SDS011;14442;50.196;8.096;2022-11-21T02:40:54;0.93;;;0.50;;
15982;SDS011;14442;50.196;8.096;2022-11-21T02:43:28;0.50;;;0.30;;
15982;SDS011;14442;50.196;8.096;2022-11-21T02:45:58;0.70;;;0.30;;
15982;SDS011;14442;50.196;8.096;2022-11-21T02:48:25;0.40;;;0.40;;
15982;SDS011;14442;50.196;8.096;2022-11-21T02:50:51;0.40;;;0.20;;
15982;SDS011;14442;50.196;8.096;2022-11-21T02:53:18;1.07;;;0.30;;
15982;SDS011;14442;50.196;8.096;2022-11-21T02:55:45;1.10;;;0.30;;
15982;SDS011;14442;50.196;8.096;2022-11-21T02:58:13;0.57;;;0.20;;
15982;SDS011;14442;50.196;8.096;2022-11-21T03:00:40;1.17;;;0.50;;
15982;SDS011;14442;50.196;8.096;2022-11-21T03:03:08;1.23;;;0.50;;
15982;SDS011;14442;50.196;8.096;2022-11-21T03:05:35;0.97;;;0.40;;
15982;SDS011;14442;50.196;8.096;2022-11-21T03:08:03;1.07;;;0.33;;
15982;SDS011;14442;50.196;8.096;2022-11-21T03:10:30;1.03;;;0.63;;
15982;SDS011;14442;50.196;8.096;2022-11-21T03:12:57;1.07;;;0.30;;
15982;SDS011;14442;50.196;8.096;2022-11-21T03:15:27;2.03;;;0.70;;
15982;SDS011;14442;50.196;8.096;2022-11-21T03:17:55;0.53;;;0.27;;
15982;SDS011;14442;50.196;8.096;2022-11-21T03:20:22;1.23;;;0.30;;
15982;SDS011;14442;50.196;8.096;2022-11-21T03:22:49;0.60;;;0.40;;
15982;SDS011;14442;50.196;8.096;2022-11-21T03:25:17;1.47;;;0.33;;
15982;SDS011;14442;50.196;8.096;2022-11-21T03:27:44;1.13;;;0.57;;
15982;SDS011;14442;50.196;8.096;2022-11-21T03:30:11;0.87;;;0.40;;
15982;SDS011;14442;50.196;8.096;2022-11-21T03:32:40;0.40;;;0.30;;
15982;SDS011;14442;50.196;8.096;2022-11-21T03:35:06;0.40;;;0.20;;
15982;SDS011;14442;50.196;8.096;2022-11-21T03:37:33;1.50;;;0.30;;
15982;SDS011;14442;50.196;8.096;2022-11-21T03:40:00;0.97;;;0.30;;
15982;SDS011;14442;50.196;8.096;2022-11-21T03:42:27;0.37;;;0.30;;
15982;SDS011;14442;50.196;8.096;2022-11-21T03:44:54;1.00;;;0.70;;
15982;SDS011;14442;50.196;8.096;2022-11-21T03:47:20;0.33;;;0.33;;
15982;SDS011;14442;50.196;8.096;2022-11-21T03:49:50;0.47;;;0.40;;
15982;SDS011;14442;50.196;8.096;2022-11-21T03:52:16;0.40;;;0.23;;
15982;SDS011;14442;50.196;8.096;2022-11-21T03:54:43;0.70;;;0.30;;
15982;SDS011;14442;50.196;8.096;2022-11-21T03:57:10;0.40;;;0.40;;
15982;SDS011;14442;50.196;8.096;2022-11-21T03:59:37;0.60;;;0.30;;
15982;SDS011;14442;50.196;8.096;2022-11-21T04:02:03;0.80;;;0.20;;
15982;SDS011;14442;50.196;8.096;2022-11-21T04:04:30;0.93;;;0.40;;
15982;SDS011;14442;50.196;8.096;2022-11-21T04:06:58;1.80;;;0.60;;
15982;SDS011;14442;50.196;8.096;2022-11-21T04:09:25;0.40;;;0.30;;
15982;SDS011;14442;50.196;8.096;2022-11-21T04:11:52;0.80;;;0.40;;
15982;SDS011;14442;50.196;8.096;2022-11-21T04:14:18;0.77;;;0.30;;
15982;SDS011;14442;50.196;8.096;2022-11-21T04:16:45;1.47;;;0.40;;
15982;SDS011;14442;50.196;8.096;2022-11-21T04:19:12;0.53;;;0.30;;
15982;SDS011;14442;50.196;8.096;2022-11-21T04:21:38;0.57;;;0.57;;
15982;SDS011;14442;50.196;8.096;2022-11-21T04:24:07;0.43;;;0.30;;
15982;SDS011;14442;50.196;8.096;2022-11-21T04:26:33;0.40;;;0.23;;
15982;SDS011;14442;50.196;8.096;2022-11-21T04:29:00;1.00;;;0.40;;
15982;SDS011;14442;50.196;8.096;2022-11-21T04:31:27;0.70;;;0.40;;
15982;SDS011;14442;50.196;8.096;2022-11-21T04:33:54;0.67;;;0.50;;
15982;SDS011;14442;50.196;8.096;2022-11-21T04:36:20;1.23;;;0.40;;
15982;SDS011;14442;50.196;8.096;2022-11-21T04:38:47;1.37;;;0.20;;
15982;SDS011;14442;50.196;8.096;2022-11-21T04:41:15;0.93;;;0.30;;
15982;SDS011;14442;50.196;8.096;2022-11-21T04:43:42;0.87;;;0.40;;
15982;SDS011;14442;50.196;8.096;2022-11-21T04:46:08;0.60;;;0.37;;
15982;SDS011;14442;50.196;8.096;2022-11-21T04:48:35;1.00;;;0.40;;
15982;SDS011;14442;50.196;8.096;2022-11-21T04:51:02;1.57;;;0.30;;
15982;SDS011;14442;50.196;8.096;2022-11-21T04:53:29;0.93;;;0.37;;
15982;SDS011;14442;50.196;8.096;2022-11-21T04:55:55;0.40;;;0.20;;
15982;SDS011;14442;50.196;8.096;2022-11-21T04:58:23;0.77;;;0.53;;
15982;SDS011;14442;50.196;8.096;2022-11-21T05:00:50;0.93;;;0.30;;
15982;SDS011;14442;50.196;8.096;2022-11-21T05:03:17;0.73;;;0.33;;
15982;SDS011;14442;50.196;8.096;2022-11-21T05:05:43;3.20;;;0.60;;
15982;SDS011;14442;50.196;8.096;2022-11-21T05:08:10;1.23;;;0.23;;
15982;SDS011;14442;50.196;8.096;2022-11-21T05:10:37;0.97;;;0.43;;
15982;SDS011;14442;50.196;8.096;2022-11-21T05:13:18;0.87;;;0.40;;
15982;SDS011;14442;50.196;8.096;2022-11-21T05:15:48;1.40;;;0.27;;
15982;SDS011;14442;50.196;8.096;2022-11-21T05:18:21;0.37;;;0.30;;
15982;SDS011;14442;50.196;8.096;2022-11-21T05:20:48;0.80;;;0.30;;
15982;SDS011;14442;50.196;8.096;2022-11-21T05:23:15;0.30;;;0.17;;
15982;SDS011;14442;50.196;8.096;2022-11-21T05:25:42;0.70;;;0.20;;
15982;SDS011;14442;50.196;8.096;2022-11-21T05:28:08;3.13;;;0.50;;
15982;SDS011;14442;50.196;8.096;2022-11-21T05:30:35;0.60;;;0.30;;
15982;SDS011;14442;50.196;8.096;2022-11-21T05:33:03;1.17;;;0.30;;
15982;SDS011;14442;50.196;8.096;2022-11-21T05:35:31;0.93;;;0.40;;
15982;SDS011;14442;50.196;8.096;2022-11-21T05:37:57;0.30;;;0.30;;
15982;SDS011;14442;50.196;8.096;2022-11-21T05:40:24;0.77;;;0.20;;
15982;SDS011;14442;50.196;8.096;2022-11-21T05:42:51;0.40;;;0.30;;
15982;SDS011;14442;50.196;8.096;2022-11-21T05:45:36;1.83;;;0.40;;
15982;SDS011;14442;50.196;8.096;2022-11-21T05:48:04;0.57;;;0.30;;
15982;SDS011;14442;50.196;8.096;2022-11-21T05:50:32;2.03;;;0.43;;
15982;SDS011;14442;50.196;8.096;2022-11-21T05:53:00;0.70;;;0.27;;
15982;SDS011;14442;50.196;8.096;2022-11-21T05:55:27;0.50;;;0.33;;
15982;SDS011;14442;50.196;8.096;2022-11-21T05:57:56;0.63;;;0.30;;
15982;SDS011;14442;50.196;8.096;2022-11-21T06:00:23;0.20;;;0.20;;
15982;SDS011;14442;50.196;8.096;2022-11-21T06:02:50;0.40;;;0.30;;
15982;SDS011;14442;50.196;8.096;2022-11-21T06:05:36;1.20;;;0.40;;
15982;SDS011;14442;50.196;8.096;2022-11-21T06:08:03;0.47;;;0.20;;
15982;SDS011;14442;50.196;8.096;2022-11-21T06:10:30;0.60;;;0.30;;
15982;SDS011;14442;50.196;8.096;2022-11-21T06:12:58;1.47;;;0.30;;
15982;SDS011;14442;50.196;8.096;2022-11-21T06:15:25;1.13;;;0.30;;
15982;SDS011;14442;50.196;8.096;2022-11-21T06:17:52;1.20;;;0.20;;
15982;SDS011;14442;50.196;8.096;2022-11-21T06:20:18;0.40;;;0.30;;
15982;SDS011;14442;50.196;8.096;2022-11-21T06:22:46;0.20;;;0.20;;
15982;SDS011;14442;50.196;8.096;2022-11-21T06:25:13;0.87;;;0.40;;
15982;SDS011;14442;50.196;8.096;2022-11-21T06:27:40;0.27;;;0.20;;
15982;SDS011;14442;50.196;8.096;2022-11-21T06:30:07;1.10;;;0.50;;
15982;SDS011;14442;50.196;8.096;2022-11-21T06:32:35;0.43;;;0.27;;
15982;SDS011;14442;50.196;8.096;2022-11-21T06:35:02;0.60;;;0.33;;
15982;SDS011;14442;50.196;8.096;2022-11-21T06:37:30;0.80;;;0.40;;
15982;SDS011;14442;50.196;8.096;2022-11-21T06:39:58;1.17;;;0.20;;
15982;SDS011;14442;50.196;8.096;2022-11-21T06:42:25;0.63;;;0.30;;
15982;SDS011;14442;50.196;8.096;2022-11-21T06:44:51;0.90;;;0.30;;
15982;SDS011;14442;50.196;8.096;2022-11-21T06:47:18;0.40;;;0.10;;
15982;SDS011;14442;50.196;8.096;2022-11-21T06:49:45;0.63;;;0.23;;
15982;SDS011;14442;50.196;8.096;2022-11-21T06:52:12;1.17;;;0.30;;
15982;SDS011;14442;50.196;8.096;2022-11-21T06:54:39;1.40;;;0.30;;
15982;SDS011;14442;50.196;8.096;2022-11-21T06:57:07;0.67;;;0.40;;
15982;SDS011;14442;50.196;8.096;2022-11-21T06:59:33;0.67;;;0.20;;
15982;SDS011;14442;50.196;8.096;2022-11-21T07:02:00;1.90;;;0.50;;
15982;SDS011;14442;50.196;8.096;2022-11-21T07:04:27;0.60;;;0.30;;
15982;SDS011;14442;50.196;8.096;2022-11-21T07:06:53;0.30;;;0.20;;
15982;SDS011;14442;50.196;8.096;2022-11-21T07:09:20;0.53;;;0.30;;
15982;SDS011;14442;50.196;8.096;2022-11-21T07:11:47;0.53;;;0.20;;
15982;SDS011;14442;50.196;8.096;2022-11-21T07:14:15;0.60;;;0.30;;
15982;SDS011;14442;50.196;8.096;2022-11-21T07:16:41;1.83;;;0.40;;
15982;SDS011;14442;50.196;8.096;2022-11-21T07:19:08;0.43;;;0.20;;
15982;SDS011;14442;50.196;8.096;2022-11-21T07:21:35;0.30;;;0.30;;
15982;SDS011;14442;50.196;8.096;2022-11-21T07:24:02;0.27;;;0.17;;
15982;SDS011;14442;50.196;8.096;2022-11-21T07:26:30;1.73;;;0.20;;
15982;SDS011;14442;50.196;8.096;2022-11-21T07:28:57;1.37;;;0.30;;
15982;SDS011;14442;50.196;8.096;2022-11-21T07:31:25;0.83;;;0.40;;
15982;SDS011;14442;50.196;8.096;2022-11-21T07:33:52;2.10;;;0.23;;
15982;SDS011;14442;50.196;8.096;2022-11-21T07:36:18;0.60;;;0.20;;
15982;SDS011;14442;50.196;8.096;2022-11-21T07:38:45;2.53;;;0.33;;
15982;SDS011;14442;50.196;8.096;2022-11-21T07:41:12;0.93;;;0.20;;
15982;SDS011;14442;50.196;8.096;2022-11-21T07:43:39;1.10;;;0.40;;
15982;SDS011;14442;50.196;8.096;2022-11-21T07:46:05;4.60;;;0.40;;
15982;SDS011;14442;50.196;8.096;2022-11-21T07:48:33;2.83;;;0.43;;
15982;SDS011;14442;50.196;8.096;2022-11-21T07:51:01;0.67;;;0.30;;
15982;SDS011;14442;50.196;8.096;2022-11-21T07:53:29;0.73;;;0.20;;
15982;SDS011;14442;50.196;8.096;2022-11-21T07:55:56;1.90;;;0.20;;
15982;SDS011;14442;50.196;8.096;2022-11-21T07:58:23;2.40;;;0.30;;
15982;SDS011;14442;50.196;8.096;2022-11-21T08:00:50;3.53;;;0.40;;
15982;SDS011;14442;50.196;8.096;2022-11-21T08:03:17;2.30;;;0.50;;
15982;SDS011;14442;50.196;8.096;2022-11-21T08:05:45;6.57;;;0.70;;
15982;SDS011;14442;50.196;8.096;2022-11-21T08:08:13;8.47;;;0.73;;
15982;SDS011;14442;50.196;8.096;2022-11-21T08:10:41;2.40;;;0.67;;
15982;SDS011;14442;50.196;8.096;2022-11-21T08:13:09;4.73;;;0.80;;
15982;SDS011;14442;50.196;8.096;2022-11-21T08:15:36;9.07;;;0.73;;
15982;SDS011;14442;50.196;8.096;2022-11-21T08:18:06;2.60;;;0.50;;
15982;SDS011;14442;50.196;8.096;2022-11-21T08:20:34;6.50;;;0.90;;
15982;SDS011;14442;50.196;8.096;2022-11-21T08:23:02;5.97;;;0.90;;
15982;SDS011;14442;50.196;8.096;2022-11-21T08:25:30;6.87;;;0.73;;
15982;SDS011;14442;50.196;8.096;2022-11-21T08:27:57;4.57;;;1.00;;
15982;SDS011;14442;50.196;8.096;2022-11-21T08:30:24;13.27;;;0.87;;
15982;SDS011;14442;50.196;8.096;2022-11-21T08:32:51;7.97;;;0.77;;
15982;SDS011;14442;50.196;8.096;2022-11-21T08:35:18;1.40;;;0.40;;
15982;SDS011;14442;50.196;8.096;2022-11-21T08:37:45;2.83;;;0.67;;
15982;SDS011;14442;50.196;8.096;2022-11-21T08:40:13;11.07;;;0.90;;
15982;SDS011;14442;50.196;8.096;2022-11-21T08:42:40;4.47;;;0.60;;
15982;SDS011;14442;50.196;8.096;2022-11-21T08:45:07;6.00;;;0.80;;
15982;SDS011;14442;50.196;8.096;2022-11-21T08:47:34;7.47;;;0.60;;
15982;SDS011;14442;50.196;8.096;2022-11-21T08:50:01;5.07;;;0.70;;
15982;SDS011;14442;50.196;8.096;2022-11-21T08:52:29;5.80;;;0.60;;
15982;SDS011;14442;50.196;8.096;2022-11-21T08:54:56;2.87;;;0.53;;
15982;SDS011;14442;50.196;8.096;2022-11-21T08:57:24;4.73;;;0.80;;
15982;SDS011;14442;50.196;8.096;2022-11-21T08:59:51;4.73;;;0.80;;
15982;SDS011;14442;50.196;8.096;2022-11-21T09:02:17;5.03;;;0.87;;
15982;SDS011;14442;50.196;8.096;2022-11-21T09:04:44;6.47;;;0.67;;
15982;SDS011;14442;50.196;8.096;2022-11-21T09:07:11;8.97;;;0.60;;
15982;SDS011;14442;50.196;8.096;2022-11-21T09:09:37;7.23;;;0.73;;
15982;SDS011;14442;50.196;8.096;2022-11-21T09:12:04;9.60;;;1.33;;
15982;SDS011;14442;50.196;8.096;2022-11-21T09:14:33;20.20;;;1.97;;
15982;SDS011;14442;50.196;8.096;2022-11-21T09:17:17;51.63;;;3.93;;
15982;SDS011;14442;50.196;8.096;2022-11-21T09:20:01;13.17;;;1.13;;
15982;SDS011;14442;50.196;8.096;2022-11-21T09:22:27;22.23;;;1.63;;
15982;SDS011;14442;50.196;8.096;2022-11-21T09:24:54;16.33;;;1.60;;
15982;SDS011;14442;50.196;8.096;2022-11-21T09:27:21;10.03;;;1.20;;
15982;SDS011;14442;50.196;8.096;2022-11-21T09:29:49;8.67;;;0.93;;
15982;SDS011;14442;50.196;8.096;2022-11-21T09:32:16;6.87;;;0.93;;
15982;SDS011;14442;50.196;8.096;2022-11-21T09:34:42;10.33;;;1.07;;
15982;SDS011;14442;50.196;8.096;2022-11-21T09:37:09;8.00;;;0.80;;
15982;SDS011;14442;50.196;8.096;2022-11-21T09:39:36;9.17;;;1.00;;
15982;SDS011;14442;50.196;8.096;2022-11-21T09:42:06;6.97;;;1.23;;
15982;SDS011;14442;50.196;8.096;2022-11-21T09:44:52;11.07;;;1.03;;
15982;SDS011;14442;50.196;8.096;2022-11-21T09:47:27;2.80;;;0.77;;
15982;SDS011;14442;50.196;8.096;2022-11-21T09:49:56;2.13;;;0.47;;
15982;SDS011;14442;50.196;8.096;2022-11-21T09:52:27;8.90;;;0.80;;
15982;SDS011;14442;50.196;8.096;2022-11-21T09:55:04;3.30;;;0.60;;
15982;SDS011;14442;50.196;8.096;2022-11-21T09:57:33;3.43;;;0.50;;
15982;SDS011;14442;50.196;8.096;2022-11-21T10:00:03;3.03;;;0.43;;
15982;SDS011;14442;50.196;8.096;2022-11-21T10:02:47;4.70;;;0.70;;
15982;SDS011;14442;50.196;8.096;2022-11-21T10:05:14;3.50;;;0.53;;
15982;SDS011;14442;50.196;8.096;2022-11-21T10:07:41;4.23;;;0.70;;
15982;SDS011;14442;50.196;8.096;2022-11-21T10:10:22;4.97;;;0.60;;
15982;SDS011;14442;50.196;8.096;2022-11-21T10:13:01;5.57;;;0.70;;
15982;SDS011;14442;50.196;8.096;2022-11-21T10:15:46;5.37;;;0.90;;
15982;SDS011;14442;50.196;8.096;2022-11-21T10:18:25;7.80;;;0.97;;
15982;SDS011;14442;50.196;8.096;2022-11-21T10:21:21;5.63;;;0.57;;
15982;SDS011;14442;50.196;8.096;2022-11-21T10:24:04;4.60;;;0.87;;
15982;SDS011;14442;50.196;8.096;2022-11-21T10:26:45;2.13;;;0.70;;
15982;SDS011;14442;50.196;8.096;2022-11-21T10:29:18;2.30;;;0.30;;
15982;SDS011;14442;50.196;8.096;2022-11-21T10:31:50;6.83;;;0.80;;
15982;SDS011;14442;50.196;8.096;2022-11-21T10:34:21;1.90;;;0.60;;
15982;SDS011;14442;50.196;8.096;2022-11-21T10:36:52;5.13;;;0.50;;
15982;SDS011;14442;50.196;8.096;2022-11-21T10:39:23;4.47;;;0.60;;
15982;SDS011;14442;50.196;8.096;2022-11-21T10:41:57;3.40;;;0.47;;
15982;SDS011;14442;50.196;8.096;2022-11-21T10:44:29;2.70;;;0.40;;
15982;SDS011;14442;50.196;8.096;2022-11-21T10:47:16;1.97;;;0.40;;
15982;SDS011;14442;50.196;8.096;2022-11-21T10:49:52;2.53;;;0.40;;
15982;SDS011;14442;50.196;8.096;2022-11-21T10:52:24;5.07;;;0.60;;
15982;SDS011;14442;50.196;8.096;2022-11-21T10:55:02;4.77;;;0.30;;
15982;SDS011;14442;50.196;8.096;2022-11-21T10:57:35;2.73;;;0.50;;
15982;SDS011;14442;50.196;8.096;2022-11-21T11:00:12;1.40;;;0.40;;
15982;SDS011;14442;50.196;8.096;2022-11-21T11:02:59;2.30;;;0.33;;
15982;SDS011;14442;50.196;8.096;2022-11-21T11:05:29;1.13;;;0.40;;
15982;SDS011;14442;50.196;8.096;2022-11-21T11:07:59;2.17;;;0.47;;
15982;SDS011;14442;50.196;8.096;2022-11-21T11:10:29;2.53;;;0.30;;
15982;SDS011;14442;50.196;8.096;2022-11-21T11:12:57;3.97;;;0.40;;
15982;SDS011;14442;50.196;8.096;2022-11-21T11:15:52;1.30;;;0.30;;
15982;SDS011;14442;50.196;8.096;2022-11-21T11:18:29;1.13;;;0.40;;
15982;SDS011;14442;50.196;8.096;2022-11-21T11:21:11;2.73;;;0.70;;
15982;SDS011;14442;50.196;8.096;2022-11-21T11:23:41;1.27;;;0.30;;
15982;SDS011;14442;50.196;8.096;2022-11-21T11:26:19;1.90;;;0.47;;
15982;SDS011;14442;50.196;8.096;2022-11-21T11:28:48;6.40;;;0.40;;
15982;SDS011;14442;50.196;8.096;2022-11-21T11:31:15;1.20;;;0.30;;
15982;SDS011;14442;50.196;8.096;2022-11-21T11:33:49;1.53;;;0.20;;
15982;SDS011;14442;50.196;8.096;2022-11-21T11:36:22;0.50;;;0.30;;
15982;SDS011;14442;50.196;8.096;2022-11-21T11:39:08;2.23;;;0.23;;
15982;SDS011;14442;50.196;8.096;2022-11-21T11:41:47;2.53;;;0.50;;
15982;SDS011;14442;50.196;8.096;2022-11-21T11:44:49;2.63;;;0.57;;
15982;SDS011;14442;50.196;8.096;2022-11-21T11:47:42;2.73;;;0.57;;
15982;SDS011;14442;50.196;8.096;2022-11-21T11:50:16;1.27;;;0.37;;
15982;SDS011;14442;50.196;8.096;2022-11-21T11:52:49;11.03;;;0.80;;
15982;SDS011;14442;50.196;8.096;2022-11-21T11:55:22;1.90;;;0.40;;
15982;SDS011;14442;50.196;8.096;2022-11-21T11:57:55;4.43;;;1.20;;
15982;SDS011;14442;50.196;8.096;2022-11-21T12:00:25;3.10;;;0.40;;
15982;SDS011;14442;50.196;8.096;2022-11-21T12:02:59;4.43;;;0.30;;
15982;SDS011;14442;50.196;8.096;2022-11-21T12:05:30;2.30;;;0.40;;
15982;SDS011;14442;50.196;8.096;2022-11-21T12:08:05;3.23;;;0.50;;
15982;SDS011;14442;50.196;8.096;2022-11-21T12:10:39;8.47;;;0.73;;
15982;SDS011;14442;50.196;8.096;2022-11-21T12:13:24;5.20;;;0.33;;
15982;SDS011;14442;50.196;8.096;2022-11-21T12:15:53;7.00;;;0.67;;
15982;SDS011;14442;50.196;8.096;2022-11-21T12:18:25;6.57;;;0.97;;
15982;SDS011;14442;50.196;8.096;2022-11-21T12:20:59;6.67;;;1.00;;
15982;SDS011;14442;50.196;8.096;2022-11-21T12:23:30;8.90;;;0.80;;
15982;SDS011;14442;50.196;8.096;2022-11-21T12:26:04;5.40;;;0.87;;
15982;SDS011;14442;50.196;8.096;2022-11-21T12:28:43;5.47;;;0.77;;
15982;SDS011;14442;50.196;8.096;2022-11-21T12:31:18;3.27;;;0.67;;
15982;SDS011;14442;50.196;8.096;2022-11-21T12:33:54;3.40;;;0.87;;
15982;SDS011;14442;50.196;8.096;2022-11-21T12:36:32;2.13;;;0.50;;
15982;SDS011;14442;50.196;8.096;2022-11-21T12:39:11;3.60;;;0.70;;
15982;SDS011;14442;50.196;8.096;2022-11-21T12:41:53;1.47;;;0.67;;
15982;SDS011;14442;50.196;8.096;2022-11-21T12:44:52;2.23;;;0.67;;
15982;SDS011;14442;50.196;8.096;2022-11-21T12:47:30;5.27;;;1.00;;
15982;SDS011;14442;50.196;8.096;2022-11-21T12:50:30;1.83;;;0.60;;
15982;SDS011;14442;50.196;8.096;2022-11-21T12:53:24;1.60;;;0.50;;
15982;SDS011;14442;50.196;8.096;2022-11-21T12:56:18;1.20;;;0.60;;
15982;SDS011;14442;50.196;8.096;2022-11-21T12:58:56;2.73;;;0.77;;
15982;SDS011;14442;50.196;8.096;2022-11-21T13:01:26;1.00;;;0.67;;
15982;SDS011;14442;50.196;8.096;2022-11-21T13:04:00;1.27;;;0.80;;
15982;SDS011;14442;50.196;8.096;2022-11-21T13:06:31;2.03;;;0.90;;
15982;SDS011;14442;50.196;8.096;2022-11-21T13:09:06;1.97;;;0.83;;
15982;SDS011;14442;50.196;8.096;2022-11-21T13:11:39;1.07;;;0.83;;
15982;SDS011;14442;50.196;8.096;2022-11-21T13:14:25;1.43;;;0.90;;
15982;SDS011;14442;50.196;8.096;2022-11-21T13:17:00;2.30;;;0.80;;
15982;SDS011;14442;50.196;8.096;2022-11-21T13:19:34;5.73;;;0.93;;
15982;SDS011;14442;50.196;8.096;2022-11-21T13:25:09;6.33;;;1.23;;
15982;SDS011;14442;50.196;8.096;2022-11-21T13:27:36;11.90;;;1.50;;
15982;SDS011;14442;50.196;8.096;2022-11-21T13:30:18;9.90;;;1.47;;
15982;SDS011;14442;50.196;8.096;2022-11-21T13:32:47;6.37;;;1.10;;
15982;SDS011;14442;50.196;8.096;2022-11-21T13:38:28;10.20;;;1.30;;
15982;SDS011;14442;50.196;8.096;2022-11-21T13:40:56;8.97;;;1.80;;
15982;SDS011;14442;50.196;8.096;2022-11-21T13:43:41;9.77;;;1.27;;
15982;SDS011;14442;50.196;8.096;2022-11-21T13:46:08;7.93;;;1.10;;
15982;SDS011;14442;50.196;8.096;2022-11-21T13:48:41;8.90;;;1.27;;
15982;SDS011;14442;50.196;8.096;2022-11-21T13:57:34;5.67;;;0.93;;
15982;SDS011;14442;50.196;8.096;2022-11-21T14:00:23;11.00;;;1.53;;
15982;SDS011;14442;50.196;8.096;2022-11-21T14:03:08;3.70;;;0.70;;
15982;SDS011;14442;50.196;8.096;2022-11-21T14:11:44;7.53;;;1.20;;
15982;SDS011;14442;50.196;8.096;2022-11-21T14:14:23;7.30;;;0.93;;
15982;SDS011;14442;50.196;8.096;2022-11-21T14:16:53;5.67;;;1.13;;
15982;SDS011;14442;50.196;8.096;2022-11-21T14:19:30;12.93;;;1.60;;
15982;SDS011;14442;50.196;8.096;2022-11-21T14:21:58;7.47;;;1.37;;
15982;SDS011;14442;50.196;8.096;2022-11-21T14:24:25;22.60;;;1.70;;
15982;SDS011;14442;50.196;8.096;2022-11-21T14:26:53;7.90;;;1.20;;
15982;SDS011;14442;50.196;8.096;2022-11-21T14:29:24;15.67;;;2.03;;
15982;SDS011;14442;50.196;8.096;2022-11-21T14:31:52;14.37;;;2.00;;
15982;SDS011;14442;50.196;8.096;2022-11-21T14:34:23;16.13;;;2.13;;
15982;SDS011;14442;50.196;8.096;2022-11-21T14:36:52;14.40;;;1.60;;
15982;SDS011;14442;50.196;8.096;2022-11-21T14:39:20;11.70;;;1.83;;
15982;SDS011;14442;50.196;8.096;2022-11-21T14:41:50;15.30;;;1.73;;
15982;SDS011;14442;50.196;8.096;2022-11-21T14:44:20;11.83;;;1.40;;
15982;SDS011;14442;50.196;8.096;2022-11-21T14:46:48;9.77;;;1.60;;
15982;SDS011;14442;50.196;8.096;2022-11-21T14:49:25;8.37;;;1.33;;
15982;SDS011;14442;50.196;8.096;2022-11-21T14:51:59;7.37;;;1.40;;
15982;SDS011;14442;50.196;8.096;2022-11-21T14:54:28;5.77;;;1.00;;
15982;SDS011;14442;50.196;8.096;2022-11-21T14:56:57;8.00;;;1.33;;
15982;SDS011;14442;50.196;8.096;2022-11-21T14:59:27;3.37;;;0.80;;
15982;SDS011;14442;50.196;8.096;2022-11-21T15:01:59;3.77;;;0.80;;
15982;SDS011;14442;50.196;8.096;2022-11-21T15:04:29;6.50;;;1.27;;
15982;SDS011;14442;50.196;8.096;2022-11-21T15:06:57;8.27;;;1.20;;
15982;SDS011;14442;50.196;8.096;2022-11-21T15:09:24;5.03;;;0.70;;
15982;SDS011;14442;50.196;8.096;2022-11-21T15:11:52;3.90;;;0.90;;
15982;SDS011;14442;50.196;8.096;2022-11-21T15:14:26;7.13;;;1.00;;
15982;SDS011;14442;50.196;8.096;2022-11-21T15:16:59;5.43;;;0.97;;
15982;SDS011;14442;50.196;8.096;2022-11-21T15:19:28;4.20;;;1.00;;
15982;SDS011;14442;50.196;8.096;2022-11-21T15:21:57;5.90;;;1.27;;
15982;SDS011;14442;50.196;8.096;2022-11-21T15:24:27;7.20;;;1.23;;